Date,TemperatureHighF,TemperatureAvgF,TemperatureLowF,DewpointHighF,DewpointAvgF,DewpointLowF,HumidityHigh,HumidityAvg,HumidityLow,PressureMaxIn,PressureMinIn,WindSpeedMaxMPH,WindSpeedAvgMPH,GustSpeedMaxMPH,PrecipitationSumIn
2013-1-1,31,26,16,30,22,10,97,83,68,0.00,40.00,11,5,14,0.55
2013-1-2,23,16,10,12,9,7,89,75,59,0.00,40.00,6,3,11,0.00
2013-1-3,30,20,11,21,13,7,85,72,51,0.00,40.00,12,6,19,0.00
2013-1-4,30,26,23,21,17,15,79,68,59,0.00,40.00,18,10,26,0.00
2013-1-5,35,27,17,25,19,14,91,72,57,0.00,40.00,12,6,17,0.00
2013-1-6,36,32,26,32,26,22,94,78,67,0.00,40.00,12,8,22,0.00
2013-1-7,33,28,24,24,22,20,90,80,64,0.00,40.00,12,6,16,0.00
2013-1-8,42,31,21,29,24,19,94,75,56,0.00,40.00,11,6,14,0.00
2013-1-9,45,39,34,38,31,24,91,71,63,0.00,40.00,14,8,22,0.55
2013-1-10,38,35,31,29,28,26,89,75,63,0.00,40.00,10,5,16,0.00
2013-1-11,58,48,38,52,42,27,97,81,63,0.00,40.00,18,9,24,1.10
2013-1-12,60,55,47,59,53,46,99,93,79,0.00,40.00,13,8,19,0.00
2013-1-13,63,58,40,58,54,37,98,87,72,0.00,40.00,24,13,35,1.65
2013-1-14,39,30,25,37,24,20,93,80,70,0.00,40.00,14,6,25,0.00
2013-1-15,29,26,22,22,20,18,89,77,67,0.00,40.00,9,5,12,0.00
2013-1-16,34,30,29,27,24,21,88,76,65,0.00,40.00,14,6,19,0.00
2013-1-17,34,32,26,27,25,16,86,77,65,0.00,40.00,18,4,24,0.00
2013-1-18,32,25,14,19,14,7,81,63,49,0.00,40.00,18,10,27,0.00
2013-1-19,50,42,31,26,22,18,61,45,31,0.00,40.00,26,17,46,0.00
2013-1-20,45,30,22,31,16,10,65,57,44,0.00,40.00,24,12,46,0.00
2013-1-21,22,17,8,16,9,-3,86,71,51,0.00,40.00,16,7,29,1.65
2013-1-22,12,7,4,0,-3,-5,67,62,53,0.00,40.00,13,6,19,0.00
2013-1-23,17,11,4,11,1,-3,87,65,47,0.00,40.00,12,5,17,0.00
2013-1-24,21,15,10,12,6,1,88,68,48,0.00,40.00,13,5,19,0.55
2013-1-25,19,15,13,16,9,3,89,74,62,0.00,40.00,9,5,13,2.20
2013-1-26,27,22,19,20,16,9,92,76,54,0.00,40.00,13,5,19,1.10
2013-1-27,31,24,14,23,15,9,89,69,58,0.00,40.00,12,5,16,0.00
2013-1-28,48,40,29,48,39,24,99,95,79,0.00,40.00,17,10,28,1.10
2013-1-29,64,55,48,55,51,48,99,85,66,0.00,40.00,18,11,28,0.00
2013-1-30,63,55,33,55,49,31,94,81,64,0.00,40.00,30,16,37,3.93
2013-1-31,33,23,18,31,16,8,95,74,52,0.00,40.00,20,12,37,2.20